Time;durP1;ratioP1;P1;durP2;ratioP2;P2;SDS_P1;SDS_P2;PMS_P1;PMS_P2;Temp;Humidity;BMP_temperature;BMP_pressure;BME280_temperature;BME280_humidity;BME280_pressure;Samples;Min_cycle;Max_cycle;Signal;HPM_P1;HPM_P2
2023/06/02 00:01:18;;;;;;;4.93;2.80;;;16.30;61.70;;;;;;5115552;28;20024;-78
2023/06/02 00:03:44;;;;;;;6.20;2.80;;;16.30;61.80;;;;;;5115394;28;20477;-79
2023/06/02 00:06:11;;;;;;;6.93;2.20;;;16.30;61.60;;;;;;5115327;28;20016;-78
2023/06/02 00:08:38;;;;;;;7.47;2.33;;;16.30;61.50;;;;;;5115199;28;20024;-78
2023/06/02 00:11:05;;;;;;;6.88;2.40;;;16.30;61.30;;;;;;5116449;28;20051;-78
2023/06/02 00:13:30;;;;;;;4.95;2.33;;;16.30;61.40;;;;;;5116156;28;20013;-78
2023/06/02 00:15:56;;;;;;;5.43;2.55;;;16.30;61.30;;;;;;5116151;28;20024;-78
2023/06/02 00:18:22;;;;;;;3.97;1.88;;;16.30;61.40;;;;;;5114912;28;20056;-78
2023/06/02 00:20:49;;;;;;;4.75;2.00;;;16.30;61.00;;;;;;5115076;28;20419;-78
2023/06/02 00:23:15;;;;;;;7.78;2.30;;;16.20;60.90;;;;;;5116036;28;20035;-78
2023/06/02 00:25:41;;;;;;;9.40;2.88;;;16.10;60.80;;;;;;5098171;28;20028;-78
2023/06/02 00:28:06;;;;;;;7.28;2.47;;;16.10;60.70;;;;;;5115808;28;20044;-78
2023/06/02 00:30:34;;;;;;;6.55;2.20;;;16.10;61.00;;;;;;5115859;28;20047;-78
2023/06/02 00:33:00;;;;;;;6.03;2.42;;;16.10;60.90;;;;;;5097865;28;20016;-78
2023/06/02 00:35:25;;;;;;;7.38;2.20;;;16.10;61.00;;;;;;5115708;28;20019;-78
2023/06/02 00:37:52;;;;;;;7.13;2.00;;;15.90;60.60;;;;;;5115688;28;20025;-78
2023/06/02 00:40:18;;;;;;;6.07;2.40;;;15.90;61.10;;;;;;5115692;28;20107;-78
2023/06/02 00:42:43;;;;;;;9.02;2.13;;;15.90;60.20;;;;;;5115590;28;20028;-78
2023/06/02 00:45:09;;;;;;;5.78;1.95;;;15.90;60.20;;;;;;5115733;28;20051;-78
2023/06/02 00:47:36;;;;;;;6.80;2.03;;;15.90;60.20;;;;;;5115565;28;20032;-78
2023/06/02 00:50:02;;;;;;;6.97;1.88;;;15.90;60.10;;;;;;5114455;28;20031;-78
2023/06/02 00:52:28;;;;;;;6.97;2.08;;;15.90;60.10;;;;;;5114387;28;20021;-78
2023/06/02 00:54:56;;;;;;;6.82;2.17;;;15.80;60.10;;;;;;5115388;28;20020;-78
2023/06/02 00:57:21;;;;;;;5.15;2.03;;;15.80;60.00;;;;;;5115299;28;20104;-78
2023/06/02 00:59:47;;;;;;;5.50;2.13;;;15.80;60.20;;;;;;5114266;28;20028;-78
2023/06/02 01:02:13;;;;;;;7.13;2.03;;;15.80;60.60;;;;;;5115233;28;20029;-78
2023/06/02 01:04:46;;;;;;;7.00;2.15;;;15.80;60.70;;;;;;5113678;28;20028;-78
2023/06/02 01:07:14;;;;;;;6.40;2.05;;;15.80;60.90;;;;;;5115104;28;20391;-78
2023/06/02 01:09:41;;;;;;;7.45;2.60;;;15.80;60.90;;;;;;5114094;28;20028;-78
2023/06/02 01:12:07;;;;;;;7.93;1.90;;;15.80;61.10;;;;;;5114752;28;20099;-78
2023/06/02 01:14:33;;;;;;;8.95;2.92;;;15.80;61.20;;;;;;5114959;28;20036;-78
2023/06/02 01:16:59;;;;;;;4.88;2.17;;;15.80;61.30;;;;;;5113999;28;20057;-78
2023/06/02 01:19:26;;;;;;;9.10;2.40;;;15.80;61.40;;;;;;5113646;28;20116;-78
2023/06/02 01:22:01;;;;;;;4.95;2.08;;;15.80;61.50;;;;;;5114839;28;20028;-78
2023/06/02 01:24:38;;;;;;;5.78;2.05;;;15.80;61.50;;;;;;5114992;28;20528;-78
2023/06/02 01:27:08;;;;;;;7.07;2.20;;;15.80;61.20;;;;;;5114806;28;20031;-77
2023/06/02 01:29:35;;;;;;;7.78;1.95;;;15.80;61.60;;;;;;5113677;28;20016;-78
2023/06/02 01:32:10;;;;;;;7.35;2.13;;;15.80;61.70;;;;;;5113679;28;20028;-78
2023/06/02 01:34:47;;;;;;;5.80;2.13;;;15.80;61.60;;;;;;5114568;28;20020;-78
2023/06/02 01:37:14;;;;;;;8.65;2.40;;;15.70;61.60;;;;;;5113577;28;20024;-78
2023/06/02 01:39:41;;;;;;;6.05;2.17;;;15.80;61.60;;;;;;5096477;28;20028;-78
2023/06/02 01:42:08;;;;;;;6.15;1.73;;;15.80;61.60;;;;;;5113758;28;20024;-78
2023/06/02 01:44:36;;;;;;;6.47;2.30;;;15.80;61.80;;;;;;5113386;28;20028;-78
2023/06/02 01:47:02;;;;;;;8.73;2.20;;;15.80;62.10;;;;;;5114272;28;20069;-77
2023/06/02 01:49:28;;;;;;;4.40;2.03;;;15.80;62.00;;;;;;5113331;28;20024;-78
2023/06/02 01:51:54;;;;;;;9.32;2.25;;;15.80;61.90;;;;;;5113366;28;20028;-78
2023/06/02 01:54:21;;;;;;;8.18;2.20;;;15.70;61.40;;;;;;5114234;28;20024;-78
2023/06/02 01:56:47;;;;;;;8.70;2.33;;;15.70;61.50;;;;;;5113390;28;20028;-78
2023/06/02 01:59:12;;;;;;;7.30;2.42;;;15.70;61.70;;;;;;5114153;28;20066;-78
2023/06/02 02:01:40;;;;;;;8.63;2.30;;;15.70;61.80;;;;;;5113255;28;20031;-78
2023/06/02 02:04:06;;;;;;;6.50;2.13;;;15.70;62.10;;;;;;5114096;28;20012;-78
2023/06/02 02:06:32;;;;;;;4.68;1.88;;;15.60;61.70;;;;;;5112923;28;20043;-78
2023/06/02 02:09:01;;;;;;;4.88;2.20;;;15.60;62.00;;;;;;5113201;28;20028;-78
2023/06/02 02:11:27;;;;;;;4.78;1.85;;;15.60;62.10;;;;;;5096199;28;20045;-78
2023/06/02 02:13:54;;;;;;;9.63;2.47;;;15.60;62.10;;;;;;5112899;28;20023;-78
2023/06/02 02:16:20;;;;;;;7.32;2.30;;;15.60;62.00;;;;;;5112173;28;20031;-78
2023/06/02 02:18:46;;;;;;;10.23;2.33;;;15.60;62.10;;;;;;5112708;28;20044;-78
2023/06/02 02:21:13;;;;;;;7.03;2.10;;;15.60;62.00;;;;;;5112893;28;20487;-78
2023/06/02 02:23:39;;;;;;;4.82;2.15;;;15.50;62.00;;;;;;5112829;28;20024;-78
2023/06/02 02:26:05;;;;;;;6.72;3.10;;;15.50;62.10;;;;;;5112748;28;20034;-78
2023/06/02 02:28:31;;;;;;;8.27;2.40;;;15.50;62.10;;;;;;5112729;28;20028;-78
2023/06/02 02:30:57;;;;;;;7.57;2.22;;;15.50;62.00;;;;;;5113704;28;20027;-78
2023/06/02 02:33:23;;;;;;;5.53;2.33;;;15.50;62.10;;;;;;5113613;28;20027;-78
2023/06/02 02:35:49;;;;;;;7.28;2.40;;;15.50;62.30;;;;;;5113638;28;20028;-78
2023/06/02 02:38:15;;;;;;;7.07;2.13;;;15.50;62.20;;;;;;5112639;28;20032;-78
2023/06/02 02:40:41;;;;;;;6.18;2.08;;;15.40;61.90;;;;;;5095856;28;20020;-78
2023/06/02 02:43:06;;;;;;;5.75;2.30;;;15.40;62.00;;;;;;5113528;28;20085;-78
2023/06/02 02:45:32;;;;;;;8.40;2.42;;;15.40;61.90;;;;;;5112609;28;20063;-78
2023/06/02 02:47:57;;;;;;;5.70;2.30;;;15.40;62.10;;;;;;5112516;28;20036;-78
2023/06/02 02:50:23;;;;;;;7.25;2.20;;;15.40;62.30;;;;;;5112492;28;20024;-78
2023/06/02 02:52:49;;;;;;;6.32;2.63;;;15.40;62.20;;;;;;5113558;28;20028;-78
2023/06/02 02:55:14;;;;;;;7.13;2.58;;;15.30;61.80;;;;;;5113450;28;20028;-78
2023/06/02 02:57:40;;;;;;;7.20;2.58;;;15.30;61.90;;;;;;5112433;28;20054;-78
2023/06/02 03:00:09;;;;;;;8.20;2.75;;;15.30;61.80;;;;;;5113399;28;20028;-78
2023/06/02 03:02:35;;;;;;;7.45;2.20;;;15.20;61.40;;;;;;5113363;28;20032;-78
2023/06/02 03:05:02;;;;;;;6.75;2.83;;;15.20;61.50;;;;;;5113383;28;20028;-78
2023/06/02 03:07:29;;;;;;;10.30;3.33;;;15.20;61.60;;;;;;5113399;28;20043;-78
2023/06/02 03:09:55;;;;;;;7.15;2.30;;;15.10;61.60;;;;;;5112365;28;20024;-78
2023/06/02 03:12:21;;;;;;;5.80;2.72;;;15.10;61.70;;;;;;5113373;28;20027;-78
2023/06/02 03:14:46;;;;;;;9.30;2.50;;;15.10;61.80;;;;;;5112394;28;20493;-78
2023/06/02 03:17:13;;;;;;;9.05;2.50;;;15.10;61.80;;;;;;5113203;28;20028;-79
2023/06/02 03:19:38;;;;;;;4.57;1.92;;;15.10;61.80;;;;;;5113083;28;20111;-78
2023/06/02 03:22:05;;;;;;;5.13;2.33;;;15.10;61.70;;;;;;5112254;28;20039;-78
2023/06/02 03:24:30;;;;;;;6.63;2.20;;;15.10;61.90;;;;;;5095392;28;20096;-78
2023/06/02 03:26:57;;;;;;;6.70;2.50;;;15.10;61.90;;;;;;5114269;28;20036;-79
2023/06/02 03:29:23;;;;;;;5.63;2.65;;;15.00;61.90;;;;;;5099235;28;20024;-78
2023/06/02 03:31:51;;;;;;;5.90;2.42;;;15.00;61.70;;;;;;5116060;28;20024;-78
2023/06/02 03:34:17;;;;;;;7.85;2.83;;;15.00;61.70;;;;;;5115930;28;20035;-78
2023/06/02 03:36:43;;;;;;;4.07;2.08;;;15.00;61.80;;;;;;5116869;28;20020;-78
2023/06/02 03:39:09;;;;;;;13.00;2.67;;;15.00;62.10;;;;;;5115897;28;20062;-78
2023/06/02 03:41:36;;;;;;;7.78;2.20;;;15.00;62.30;;;;;;5115738;28;20103;-78
2023/06/02 03:44:03;;;;;;;7.28;2.10;;;14.90;62.30;;;;;;5116737;28;20028;-78
2023/06/02 03:46:28;;;;;;;13.13;2.50;;;14.90;62.10;;;;;;5115599;28;20050;-78
2023/06/02 03:48:54;;;;;;;4.18;2.22;;;14.90;62.20;;;;;;5116674;28;20020;-78
2023/06/02 03:51:20;;;;;;;5.88;2.05;;;15.00;62.30;;;;;;5115705;28;20031;-78
2023/06/02 03:53:46;;;;;;;6.32;1.90;;;14.90;62.10;;;;;;5116595;28;20091;-78
2023/06/02 03:56:12;;;;;;;5.70;2.17;;;14.80;62.20;;;;;;5116504;28;20413;-78
2023/06/02 03:58:38;;;;;;;5.75;2.33;;;14.90;62.10;;;;;;5098582;28;20046;-78
2023/06/02 04:01:04;;;;;;;4.78;2.17;;;14.80;62.10;;;;;;5098684;28;20119;-79
2023/06/02 04:03:32;;;;;;;8.25;3.05;;;14.80;62.30;;;;;;5115341;28;20020;-78
2023/06/02 04:05:59;;;;;;;5.13;2.10;;;14.80;62.30;;;;;;5116339;28;20058;-78
2023/06/02 04:08:25;;;;;;;7.85;2.00;;;14.80;62.30;;;;;;5116228;28;20020;-78
2023/06/02 04:10:50;;;;;;;3.30;1.75;;;14.80;62.40;;;;;;5115408;28;20044;-78
2023/06/02 04:13:16;;;;;;;6.13;2.00;;;14.80;62.40;;;;;;5115374;28;20028;-78
2023/06/02 04:15:42;;;;;;;6.95;2.53;;;14.80;62.60;;;;;;5116322;28;20050;-78
2023/06/02 04:18:08;;;;;;;8.05;1.90;;;14.80;62.90;;;;;;5115931;28;20040;-78
2023/06/02 04:20:34;;;;;;;7.45;2.50;;;14.80;62.60;;;;;;5116114;28;20073;-78
2023/06/02 04:22:59;;;;;;;6.80;2.10;;;14.80;63.00;;;;;;5115988;28;20028;-79
2023/06/02 04:25:25;;;;;;;6.28;2.03;;;14.80;63.10;;;;;;5115062;28;20044;-78
2023/06/02 04:27:51;;;;;;;7.40;2.35;;;14.80;63.40;;;;;;5115061;28;20039;-78
2023/06/02 04:30:17;;;;;;;6.72;2.28;;;14.80;63.70;;;;;;5098052;28;20020;-78
2023/06/02 04:32:42;;;;;;;4.57;2.05;;;14.80;63.80;;;;;;5115809;28;20459;-78
2023/06/02 04:35:08;;;;;;;7.95;2.30;;;14.80;63.60;;;;;;5097849;28;20055;-78
2023/06/02 04:37:34;;;;;;;8.30;2.33;;;14.80;63.60;;;;;;5115712;28;20028;-78
2023/06/02 04:40:04;;;;;;;5.90;2.00;;;14.80;63.70;;;;;;5114892;28;20035;-78
2023/06/02 04:42:32;;;;;;;9.07;1.83;;;14.80;63.80;;;;;;5114808;28;20032;-78
2023/06/02 04:45:00;;;;;;;5.53;2.28;;;14.80;63.80;;;;;;5097968;28;20028;-78
2023/06/02 04:47:27;;;;;;;4.65;1.83;;;14.80;64.20;;;;;;5114496;28;20036;-79
2023/06/02 04:49:53;;;;;;;6.72;2.17;;;14.80;64.20;;;;;;5097597;28;20084;-78
2023/06/02 04:52:19;;;;;;;5.25;1.98;;;14.70;63.80;;;;;;5115456;28;20024;-78
2023/06/02 04:54:45;;;;;;;6.88;2.10;;;14.70;64.00;;;;;;5114550;28;20048;-78
2023/06/02 04:57:10;;;;;;;3.90;2.00;;;14.70;64.30;;;;;;5115501;28;20091;-78
2023/06/02 04:59:36;;;;;;;4.93;1.83;;;14.70;64.40;;;;;;5114340;28;20042;-78
2023/06/02 05:02:02;;;;;;;5.93;2.10;;;14.60;64.40;;;;;;5115364;28;20058;-78
2023/06/02 05:04:28;;;;;;;7.07;2.10;;;14.70;64.30;;;;;;5114315;28;20043;-78
2023/06/02 05:06:53;;;;;;;8.20;2.38;;;14.70;64.20;;;;;;5115082;28;20031;-77
2023/06/02 05:09:19;;;;;;;6.65;2.08;;;14.70;64.40;;;;;;5114093;28;20127;-78
2023/06/02 05:11:45;;;;;;;7.72;2.35;;;14.70;64.30;;;;;;5115076;28;20023;-78
2023/06/02 05:14:11;;;;;;;7.50;1.98;;;14.70;64.30;;;;;;5114098;28;20021;-79
2023/06/02 05:16:36;;;;;;;5.35;2.05;;;14.70;64.40;;;;;;5114320;28;20028;-79
2023/06/02 05:19:05;;;;;;;6.70;1.98;;;14.70;64.30;;;;;;5114590;28;20064;-79
2023/06/02 05:21:31;;;;;;;4.88;1.70;;;14.70;63.90;;;;;;5113820;28;20118;-79
2023/06/02 05:23:58;;;;;;;5.40;1.95;;;14.70;63.90;;;;;;5114063;28;20031;-79
2023/06/02 05:26:24;;;;;;;9.10;2.03;;;14.60;63.90;;;;;;5113906;28;20016;-81
2023/06/02 05:28:50;;;;;;;6.65;1.95;;;14.60;63.70;;;;;;5113795;28;20465;-78
2023/06/02 05:31:16;;;;;;;7.68;2.33;;;14.50;63.80;;;;;;5114679;28;20021;-77
2023/06/02 05:33:42;;;;;;;8.02;1.92;;;14.60;64.00;;;;;;5114531;28;20079;-77
2023/06/02 05:36:07;;;;;;;7.50;2.25;;;14.60;64.00;;;;;;5114604;28;20024;-77
2023/06/02 05:38:33;;;;;;;5.95;2.03;;;14.60;63.90;;;;;;5113595;28;20028;-77
2023/06/02 05:40:59;;;;;;;6.03;2.00;;;14.50;64.10;;;;;;5114488;28;20032;-77
2023/06/02 05:43:24;;;;;;;6.28;1.70;;;14.50;64.10;;;;;;5096640;28;20043;-77
2023/06/02 05:45:50;;;;;;;6.25;2.05;;;14.60;64.30;;;;;;5114411;28;20494;-78
2023/06/02 05:48:16;;;;;;;6.63;1.92;;;14.60;64.40;;;;;;5114314;28;20032;-77
2023/06/02 05:50:43;;;;;;;5.80;1.90;;;14.60;64.40;;;;;;5114427;28;20089;-77
2023/06/02 05:53:09;;;;;;;3.65;1.50;;;14.60;64.50;;;;;;5114336;28;20035;-78
2023/06/02 05:55:34;;;;;;;4.22;2.00;;;14.60;64.50;;;;;;5114233;28;20028;-77
2023/06/02 05:58:00;;;;;;;6.85;2.30;;;14.60;64.30;;;;;;5114170;28;20046;-76
2023/06/02 06:00:26;;;;;;;7.97;1.83;;;14.60;64.40;;;;;;5096155;28;20040;-78
2023/06/02 06:02:52;;;;;;;6.65;2.33;;;14.60;64.60;;;;;;5113262;28;20066;-77
2023/06/02 06:05:18;;;;;;;7.88;2.08;;;14.60;64.20;;;;;;5114044;28;20054;-77
2023/06/02 06:07:44;;;;;;;8.18;1.88;;;14.50;64.30;;;;;;5112995;28;20028;-77
2023/06/02 06:10:09;;;;;;;5.65;1.95;;;14.50;64.70;;;;;;5113133;28;20028;-77
2023/06/02 06:12:35;;;;;;;8.68;2.30;;;14.50;65.00;;;;;;5113083;28;20088;-78
2023/06/02 06:15:01;;;;;;;5.85;2.00;;;14.40;64.60;;;;;;5113975;28;20020;-77
2023/06/02 06:17:26;;;;;;;5.63;1.80;;;14.40;64.60;;;;;;5112850;28;20027;-77
2023/06/02 06:19:53;;;;;;;6.95;2.20;;;14.40;65.20;;;;;;5113709;28;20090;-77
2023/06/02 06:22:19;;;;;;;5.32;1.88;;;14.40;65.00;;;;;;5113808;28;20051;-78
2023/06/02 06:24:45;;;;;;;3.88;1.70;;;14.40;65.20;;;;;;5112833;28;20032;-80
2023/06/02 06:27:11;;;;;;;8.07;2.10;;;14.40;65.30;;;;;;5113632;28;20032;-77
2023/06/02 06:29:37;;;;;;;6.75;1.80;;;14.50;64.90;;;;;;5113680;28;20020;-77
2023/06/02 06:32:05;;;;;;;8.23;1.98;;;14.40;65.20;;;;;;5112662;28;20093;-79
2023/06/02 06:34:31;;;;;;;7.60;2.25;;;14.40;65.30;;;;;;5112684;28;20020;-79
2023/06/02 06:36:57;;;;;;;6.57;2.03;;;14.40;65.40;;;;;;5113648;28;20032;-78
2023/06/02 06:39:22;;;;;;;8.75;2.00;;;14.50;65.30;;;;;;5112622;28;20028;-78
2023/06/02 06:41:48;;;;;;;5.13;1.77;;;14.60;65.40;;;;;;5113598;28;20087;-78
2023/06/02 06:44:14;;;;;;;5.72;2.05;;;14.60;65.30;;;;;;5112615;28;20024;-77
2023/06/02 06:46:40;;;;;;;4.47;1.70;;;14.60;64.90;;;;;;5112559;28;20083;-78
2023/06/02 06:49:06;;;;;;;9.32;1.88;;;14.60;64.70;;;;;;5112632;28;20032;-78
2023/06/02 06:51:31;;;;;;;6.45;1.85;;;14.70;64.50;;;;;;5112524;28;20023;-77
2023/06/02 06:53:57;;;;;;;8.88;1.88;;;14.70;64.10;;;;;;5112395;28;20032;-76
2023/06/02 06:56:23;;;;;;;5.22;1.80;;;14.70;63.90;;;;;;5112526;28;20020;-76
2023/06/02 06:58:48;;;;;;;5.75;1.80;;;14.70;64.00;;;;;;5112380;28;20054;-77
2023/06/02 07:01:14;;;;;;;4.20;1.63;;;14.70;64.10;;;;;;5113378;28;20024;-76
2023/06/02 07:03:40;;;;;;;10.68;2.17;;;14.80;64.40;;;;;;5099571;28;20028;-77
2023/06/02 07:06:06;;;;;;;9.20;1.80;;;14.80;64.80;;;;;;5117510;28;20024;-77
2023/06/02 07:08:31;;;;;;;5.10;1.80;;;14.80;64.60;;;;;;5117421;28;20047;-77
2023/06/02 07:10:57;;;;;;;6.90;2.20;;;14.80;64.50;;;;;;5116583;28;20098;-77
2023/06/02 07:13:26;;;;;;;6.85;1.60;;;14.90;64.50;;;;;;5116497;28;20059;-77
2023/06/02 07:15:52;;;;;;;5.85;1.73;;;14.90;64.10;;;;;;5116349;28;20031;-77
2023/06/02 07:18:17;;;;;;;7.70;1.77;;;14.90;64.80;;;;;;5117008;28;20077;-77
2023/06/02 07:20:43;;;;;;;3.22;1.60;;;15.00;64.30;;;;;;5117155;28;20099;-77
2023/06/02 07:23:09;;;;;;;10.93;1.75;;;15.10;64.00;;;;;;5116370;28;20048;-77
2023/06/02 07:25:36;;;;;;;6.85;1.67;;;15.00;63.20;;;;;;5117210;28;20079;-77
2023/06/02 07:28:03;;;;;;;9.63;1.65;;;14.90;63.90;;;;;;5117063;28;20044;-77
2023/06/02 07:30:28;;;;;;;6.35;1.45;;;15.00;63.50;;;;;;5116041;28;20028;-77
2023/06/02 07:32:54;;;;;;;8.40;1.75;;;15.00;63.70;;;;;;5117150;28;20055;-77
2023/06/02 07:35:20;;;;;;;6.57;1.60;;;15.10;63.40;;;;;;5115856;28;20032;-78
2023/06/02 07:37:51;;;;;;;7.20;1.52;;;15.20;63.20;;;;;;5115950;28;20024;-77
2023/06/02 07:40:16;;;;;;;4.03;1.75;;;15.20;62.90;;;;;;5116905;28;20025;-77
2023/06/02 07:42:42;;;;;;;9.85;2.13;;;15.20;63.10;;;;;;5116836;28;20035;-77
2023/06/02 07:45:08;;;;;;;7.53;1.65;;;15.30;63.20;;;;;;5115875;28;20028;-78
2023/06/02 07:47:34;;;;;;;4.63;1.50;;;15.30;63.50;;;;;;5116634;28;20020;-77
2023/06/02 07:49:59;;;;;;;6.90;1.88;;;15.30;63.20;;;;;;5098808;28;20432;-77
2023/06/02 07:52:25;;;;;;;4.97;1.50;;;15.30;63.00;;;;;;5116743;28;20036;-77
2023/06/02 07:54:51;;;;;;;9.70;1.70;;;15.40;63.20;;;;;;5116584;28;20034;-77
2023/06/02 07:57:16;;;;;;;5.20;2.10;;;15.40;63.20;;;;;;5115622;28;20103;-77
2023/06/02 07:59:42;;;;;;;7.72;1.65;;;15.50;63.50;;;;;;5115687;28;20032;-77
2023/06/02 08:02:08;;;;;;;7.10;2.03;;;15.50;63.50;;;;;;5115495;28;20031;-78
2023/06/02 08:04:33;;;;;;;5.28;1.80;;;15.50;63.50;;;;;;5098527;28;20039;-77
2023/06/02 08:06:59;;;;;;;8.18;1.85;;;15.60;63.20;;;;;;5115355;28;20091;-77
2023/06/02 08:09:24;;;;;;;7.53;1.73;;;15.60;63.10;;;;;;5115282;28;20024;-77
2023/06/02 08:11:52;;;;;;;7.50;2.33;;;15.60;63.00;;;;;;5115404;28;20027;-77
2023/06/02 08:14:17;;;;;;;7.15;2.50;;;15.60;63.20;;;;;;5114023;28;20029;-77
2023/06/02 08:16:43;;;;;;;6.22;1.80;;;15.60;63.40;;;;;;5116246;28;20027;-77
2023/06/02 08:19:10;;;;;;;4.28;1.77;;;15.70;63.20;;;;;;5114857;28;20074;-77
2023/06/02 08:21:38;;;;;;;6.28;2.00;;;15.70;63.30;;;;;;5098401;28;20028;-77
2023/06/02 08:24:03;;;;;;;8.73;1.77;;;15.70;63.10;;;;;;5115990;28;20044;-77
2023/06/02 08:26:30;;;;;;;7.35;2.13;;;15.70;63.10;;;;;;5115964;28;20035;-77
2023/06/02 08:28:57;;;;;;;5.35;1.70;;;15.80;62.90;;;;;;5115196;28;20051;-77
2023/06/02 08:31:22;;;;;;;6.28;2.50;;;15.90;62.90;;;;;;5115011;28;20035;-77
2023/06/02 08:33:52;;;;;;;9.10;2.13;;;15.90;62.90;;;;;;5114709;28;20024;-77
2023/06/02 08:36:19;;;;;;;8.43;1.80;;;15.90;62.90;;;;;;5115023;28;20020;-77
2023/06/02 08:38:47;;;;;;;7.07;2.00;;;15.80;63.50;;;;;;5115711;28;20035;-77
2023/06/02 08:41:13;;;;;;;6.03;2.10;;;15.80;63.10;;;;;;5114768;28;20054;-77
2023/06/02 08:43:40;;;;;;;10.82;2.65;;;15.80;63.60;;;;;;5115633;28;20028;-77
2023/06/02 08:46:12;;;;;;;9.85;2.53;;;15.80;64.40;;;;;;5115556;28;20025;-77
2023/06/02 08:48:41;;;;;;;7.93;2.17;;;15.70;64.10;;;;;;5114596;28;20039;-77
2023/06/02 08:51:10;;;;;;;6.05;1.77;;;15.70;64.90;;;;;;5115443;28;20266;-77
2023/06/02 08:53:37;;;;;;;8.32;2.08;;;15.80;64.40;;;;;;5115473;28;20042;-77
2023/06/02 08:56:04;;;;;;;6.43;1.88;;;15.80;64.30;;;;;;5114364;28;20016;-77
2023/06/02 08:58:30;;;;;;;7.43;2.08;;;15.90;64.20;;;;;;5115298;28;20024;-77
2023/06/02 09:00:56;;;;;;;6.43;1.90;;;16.00;63.90;;;;;;5114359;28;20024;-77
2023/06/02 09:03:22;;;;;;;6.15;1.77;;;16.00;63.60;;;;;;5114232;28;20127;-77
2023/06/02 09:05:47;;;;;;;7.63;2.15;;;16.10;63.90;;;;;;5115204;28;20087;-77
2023/06/02 09:08:14;;;;;;;5.70;1.88;;;16.20;64.10;;;;;;5115030;28;20032;-77
2023/06/02 09:10:41;;;;;;;11.40;2.40;;;16.20;64.30;;;;;;5115091;28;20012;-78
2023/06/02 09:13:27;;;;;;;7.05;2.08;;;16.10;64.00;;;;;;5113948;28;20032;-78
2023/06/02 09:16:03;;;;;;;7.35;1.85;;;16.10;63.90;;;;;;5114335;28;20028;-78
2023/06/02 09:18:30;;;;;;;7.65;2.30;;;16.20;63.80;;;;;;5114954;28;20036;-77
2023/06/02 09:20:59;;;;;;;6.50;2.97;;;16.30;64.00;;;;;;5113907;28;20040;-77
2023/06/02 09:23:45;;;;;;;6.18;2.33;;;16.40;63.90;;;;;;5113870;28;20031;-77
2023/06/02 09:26:25;;;;;;;7.95;2.05;;;16.50;64.30;;;;;;5113715;28;20028;-77
2023/06/02 09:29:08;;;;;;;8.02;2.47;;;16.60;63.80;;;;;;5114789;28;20028;-77
2023/06/02 09:31:52;;;;;;;6.70;2.20;;;16.60;63.50;;;;;;5114073;28;20024;-77
2023/06/02 09:34:19;;;;;;;6.20;2.22;;;16.60;63.40;;;;;;5113644;28;20043;-77
2023/06/02 09:36:53;;;;;;;6.47;2.50;;;16.60;64.00;;;;;;5113545;28;20016;-77
2023/06/02 09:39:42;;;;;;;8.13;2.20;;;16.60;63.90;;;;;;5113662;28;20032;-77
2023/06/02 09:42:08;;;;;;;10.57;2.42;;;16.60;64.90;;;;;;5114557;28;20024;-77
2023/06/02 09:44:34;;;;;;;4.97;2.10;;;16.50;64.10;;;;;;5114444;28;20035;-77
2023/06/02 09:47:01;;;;;;;11.02;2.58;;;16.60;64.60;;;;;;5096498;28;20028;-77
2023/06/02 09:49:38;;;;;;;9.00;2.42;;;16.60;64.50;;;;;;5096729;28;20013;-77
2023/06/02 09:52:15;;;;;;;8.23;2.72;;;16.60;64.70;;;;;;5113465;28;20012;-77
2023/06/02 09:54:43;;;;;;;7.40;2.38;;;16.60;64.80;;;;;;5114495;28;20392;-76
2023/06/02 09:57:10;;;;;;;6.22;2.60;;;16.60;64.60;;;;;;5114264;28;20084;-77
2023/06/02 09:59:38;;;;;;;19.65;4.60;;;16.70;64.50;;;;;;5096478;28;20028;-76
2023/06/02 10:02:03;;;;;;;61.80;9.80;;;16.70;64.80;;;;;;5113272;28;20043;-77
2023/06/02 10:04:29;;;;;;;9.40;2.80;;;16.80;65.10;;;;;;5113068;28;20028;-76
2023/06/02 10:07:21;;;;;;;8.85;2.60;;;16.80;65.00;;;;;;5113077;28;20459;-77
2023/06/02 10:10:09;;;;;;;8.00;3.23;;;16.80;65.30;;;;;;5113136;28;20046;-77
2023/06/02 10:12:41;;;;;;;8.15;2.42;;;16.80;64.40;;;;;;5112991;28;20028;-77
2023/06/02 10:15:18;;;;;;;8.10;2.50;;;16.80;65.00;;;;;;5113030;28;20035;-77
2023/06/02 10:18:06;;;;;;;16.75;3.13;;;16.90;64.80;;;;;;5113922;28;20387;-77
2023/06/02 10:20:41;;;;;;;10.35;2.67;;;16.90;64.70;;;;;;5113727;28;20088;-77
2023/06/02 10:23:40;;;;;;;6.75;2.40;;;16.90;65.10;;;;;;5112861;28;20031;-77
2023/06/02 10:26:34;;;;;;;7.35;2.53;;;17.00;65.00;;;;;;5112845;28;20059;-77
2023/06/02 10:29:03;;;;;;;6.03;2.60;;;17.00;65.10;;;;;;5113947;28;20052;-77
2023/06/02 10:31:31;;;;;;;6.43;3.03;;;17.00;64.70;;;;;;5112736;28;20399;-77
2023/06/02 10:33:59;;;;;;;7.00;2.60;;;17.00;64.30;;;;;;5112561;28;20016;-77
2023/06/02 10:36:25;;;;;;;11.60;3.15;;;17.00;64.30;;;;;;5112966;28;20027;-77
2023/06/02 10:38:52;;;;;;;4.15;2.33;;;17.10;64.80;;;;;;5113642;28;20020;-77
2023/06/02 10:41:21;;;;;;;8.52;3.03;;;17.10;66.00;;;;;;5113552;28;20024;-77
2023/06/02 10:44:22;;;;;;;8.88;3.03;;;17.10;65.00;;;;;;5112561;28;20024;-76
2023/06/02 10:46:47;;;;;;;6.75;3.03;;;17.10;64.90;;;;;;5069940;28;20070;-77
2023/06/02 10:49:50;;;;;;;8.65;3.55;;;17.10;64.90;;;;;;5113511;28;20387;-78
2023/06/02 10:52:16;;;;;;;9.52;2.97;;;17.10;64.90;;;;;;5113488;28;20054;-77
2023/06/02 10:54:42;;;;;;;6.85;2.65;;;17.10;64.50;;;;;;5112519;28;20091;-77
2023/06/02 10:57:09;;;;;;;7.30;2.90;;;17.10;65.10;;;;;;5112493;28;20096;-77
2023/06/02 10:59:36;;;;;;;5.93;2.80;;;17.10;65.70;;;;;;5112518;28;20024;-77
2023/06/02 11:02:03;;;;;;;6.75;2.90;;;17.20;65.60;;;;;;5113464;28;20044;-77
2023/06/02 11:04:30;;;;;;;5.63;2.78;;;17.20;65.90;;;;;;5113351;28;20050;-78
2023/06/02 11:07:18;;;;;;;6.85;2.58;;;17.40;65.80;;;;;;5113295;28;20059;-77
2023/06/02 11:09:45;;;;;;;7.05;2.95;;;17.50;66.10;;;;;;5113330;28;20027;-77
2023/06/02 11:12:11;;;;;;;8.05;3.20;;;17.50;66.00;;;;;;5113301;28;20016;-77
2023/06/02 11:15:07;;;;;;;7.93;3.00;;;17.60;65.70;;;;;;5113286;28;20024;-76
2023/06/02 11:17:34;;;;;;;9.18;3.25;;;17.60;64.70;;;;;;5095682;28;20059;-77
2023/06/02 11:20:01;;;;;;;7.45;3.38;;;17.70;64.60;;;;;;5111973;28;20063;-77
2023/06/02 11:22:27;;;;;;;8.10;3.05;;;17.80;65.10;;;;;;5112236;28;20024;-77
2023/06/02 11:24:54;;;;;;;5.60;3.08;;;17.70;64.70;;;;;;5113177;28;20028;-76
2023/06/02 11:27:34;;;;;;;9.05;3.40;;;17.70;64.90;;;;;;5112134;28;20033;-76
2023/06/02 11:30:05;;;;;;;7.22;3.08;;;17.70;64.80;;;;;;5113302;28;20012;-76
2023/06/02 11:32:31;;;;;;;11.23;3.13;;;17.80;65.10;;;;;;5112087;28;20052;-77
2023/06/02 11:35:01;;;;;;;10.95;3.55;;;17.80;65.10;;;;;;5112819;28;20031;-76
2023/06/02 11:37:27;;;;;;;7.88;2.88;;;17.90;65.60;;;;;;5112174;28;20054;-76
2023/06/02 11:39:54;;;;;;;7.22;3.05;;;18.00;64.80;;;;;;5095125;28;20111;-76
2023/06/02 11:42:19;;;;;;;10.73;3.53;;;18.00;64.40;;;;;;5112048;28;20032;-76
2023/06/02 11:44:49;;;;;;;8.82;3.47;;;18.00;64.30;;;;;;5112997;28;20036;-77
2023/06/02 11:47:21;;;;;;;11.57;3.50;;;18.10;64.40;;;;;;5112927;28;20036;-77
2023/06/02 11:49:47;;;;;;;11.90;3.80;;;18.00;64.00;;;;;;5116705;28;20030;-77
2023/06/02 11:52:13;;;;;;;10.88;3.42;;;18.00;64.40;;;;;;5115676;28;20290;-77
2023/06/02 11:54:50;;;;;;;9.10;3.92;;;18.00;64.50;;;;;;5115589;28;20026;-77
2023/06/02 11:57:28;;;;;;;7.70;3.50;;;18.10;65.30;;;;;;5116549;28;20028;-77
2023/06/02 12:00:18;;;;;;;7.15;3.58;;;18.10;64.90;;;;;;5116534;28;20027;-77
2023/06/02 12:02:57;;;;;;;12.07;3.10;;;18.20;64.90;;;;;;5116544;28;20028;-77
2023/06/02 12:05:34;;;;;;;6.97;3.55;;;18.30;65.30;;;;;;5116604;28;20024;-76
2023/06/02 12:08:20;;;;;;;9.77;3.40;;;18.30;65.20;;;;;;5116321;28;20139;-76
2023/06/02 12:10:49;;;;;;;9.82;3.70;;;18.40;65.10;;;;;;5116375;28;20050;-77
2023/06/02 12:13:28;;;;;;;7.15;2.92;;;18.50;64.60;;;;;;5116307;28;20020;-77
2023/06/02 12:15:55;;;;;;;9.55;3.55;;;18.60;65.20;;;;;;5098257;28;20028;-76
2023/06/02 12:18:31;;;;;;;9.52;3.40;;;18.60;65.20;;;;;;5116134;28;20028;-77
2023/06/02 12:21:01;;;;;;;11.18;4.25;;;18.80;65.20;;;;;;5116110;28;20036;-77
2023/06/02 12:23:45;;;;;;;9.88;3.53;;;18.80;64.30;;;;;;5114974;28;20028;-76
2023/06/02 12:26:12;;;;;;;7.13;3.47;;;18.80;64.00;;;;;;5116035;28;20024;-77
2023/06/02 12:28:39;;;;;;;8.57;3.33;;;18.80;63.90;;;;;;5098176;28;20039;-76
2023/06/02 12:31:05;;;;;;;7.47;3.15;;;18.90;63.40;;;;;;5114877;28;20047;-77
2023/06/02 12:33:31;;;;;;;9.02;3.17;;;18.90;64.00;;;;;;5114817;28;20024;-77
2023/06/02 12:35:57;;;;;;;8.02;3.33;;;19.00;64.10;;;;;;5114916;28;20028;-77
2023/06/02 12:38:23;;;;;;;8.75;3.03;;;19.10;64.50;;;;;;5114758;28;20425;-77
2023/06/02 12:40:50;;;;;;;8.68;3.80;;;19.20;63.60;;;;;;5115712;28;20031;-77
2023/06/02 12:43:18;;;;;;;7.03;3.47;;;19.30;63.40;;;;;;5114776;28;20039;-77
2023/06/02 12:45:44;;;;;;;7.53;3.40;;;19.40;63.50;;;;;;5115675;28;20035;-77
2023/06/02 12:48:11;;;;;;;7.97;3.60;;;19.50;62.30;;;;;;5115445;28;20032;-76
2023/06/02 12:50:36;;;;;;;7.75;3.60;;;19.60;61.90;;;;;;5115524;28;20020;-77